Time;durP1;ratioP1;P1;durP2;ratioP2;P2;SDS_P1;SDS_P2;PMS_P1;PMS_P2;Temp;Humidity;BMP_temperature;BMP_pressure;BME280_temperature;BME280_humidity;BME280_pressure;Samples;Min_cycle;Max_cycle;Signal;HPM_P1;HPM_P2
2021/07/20 00:00:15;;;;;;;9.65;6.68;;;;;;;;;;5048354;28;20500;-73
2021/07/20 00:02:44;;;;;;;11.15;7.15;;;;;;;;;;5049039;28;20459;-71
2021/07/20 00:05:13;;;;;;;13.60;8.15;;;;;;;;;;5048477;28;20056;-71
2021/07/20 00:07:43;;;;;;;12.02;7.80;;;;;;;;;;5049872;28;20045;-72
2021/07/20 00:10:12;;;;;;;15.25;7.90;;;;;;;;;;5049376;28;20143;-71
2021/07/20 00:12:41;;;;;;;12.77;8.18;;;;;;;;;;5050025;28;20115;-74
2021/07/20 00:15:13;;;;;;;16.10;8.38;;;;;;;;;;5050616;28;20056;-71
2021/07/20 00:17:42;;;;;;;15.20;8.60;;;;;;;;;;5052112;28;20052;-75
2021/07/20 00:20:11;;;;;;;12.90;7.57;;;;;;;;;;5051248;28;20496;-72
2021/07/20 00:22:40;;;;;;;12.95;8.07;;;;;;;;;;5050359;28;20045;-73
2021/07/20 00:25:09;;;;;;;18.02;9.15;;;;;;;;;;5048876;28;20412;-72
2021/07/20 00:27:37;;;;;;;21.55;9.60;;;;;;;;;;5043809;28;20136;-72
2021/07/20 00:30:06;;;;;;;14.20;8.30;;;;;;;;;;5053780;28;20079;-71
2021/07/20 00:32:36;;;;;;;15.02;8.60;;;;;;;;;;5053915;28;20076;-71
2021/07/20 00:35:04;;;;;;;15.18;8.38;;;;;;;;;;5053262;28;20534;-70
2021/07/20 00:37:32;;;;;;;12.23;8.55;;;;;;;;;;5053994;28;20053;-72
2021/07/20 00:40:01;;;;;;;13.57;8.98;;;;;;;;;;5047323;28;20351;-71
2021/07/20 00:42:29;;;;;;;16.38;8.25;;;;;;;;;;5053320;28;20132;-71
2021/07/20 00:44:57;;;;;;;14.57;9.07;;;;;;;;;;5052767;28;20128;-71
2021/07/20 00:47:26;;;;;;;20.38;9.10;;;;;;;;;;5053483;28;20471;-71
2021/07/20 00:49:55;;;;;;;14.68;8.68;;;;;;;;;;5055353;28;20067;-71
2021/07/20 00:52:23;;;;;;;15.95;9.35;;;;;;;;;;5053430;28;20088;-71
2021/07/20 00:54:52;;;;;;;16.00;9.90;;;;;;;;;;5045189;28;20390;-72
2021/07/20 00:57:20;;;;;;;18.05;10.10;;;;;;;;;;5053599;28;20104;-70
2021/07/20 00:59:49;;;;;;;16.20;10.05;;;;;;;;;;5054195;28;20143;-72
2021/07/20 01:02:17;;;;;;;15.57;9.93;;;;;;;;;;5048060;28;20140;-74
2021/07/20 01:04:46;;;;;;;16.25;9.38;;;;;;;;;;5039994;28;20045;-73
2021/07/20 01:07:16;;;;;;;14.73;10.07;;;;;;;;;;5049887;28;20045;-72
2021/07/20 01:09:44;;;;;;;18.90;10.23;;;;;;;;;;5046698;28;20158;-72
2021/07/20 01:12:13;;;;;;;18.63;9.00;;;;;;;;;;5054658;28;20174;-72
2021/07/20 01:14:42;;;;;;;17.65;9.38;;;;;;;;;;5053583;28;20120;-73
2021/07/20 01:17:11;;;;;;;13.98;9.60;;;;;;;;;;5053880;28;20049;-72
2021/07/20 01:19:44;;;;;;;15.70;9.10;;;;;;;;;;5054137;28;20049;-71
2021/07/20 01:22:15;;;;;;;17.73;10.07;;;;;;;;;;5034801;28;20493;-71
2021/07/20 01:24:45;;;;;;;16.40;9.20;;;;;;;;;;5050893;28;20040;-71
2021/07/20 01:27:14;;;;;;;15.07;8.85;;;;;;;;;;5055436;28;20136;-71
2021/07/20 01:29:42;;;;;;;17.13;9.63;;;;;;;;;;5055256;28;20168;-71
2021/07/20 01:32:11;;;;;;;19.60;9.27;;;;;;;;;;5056585;28;20052;-72
2021/07/20 01:34:39;;;;;;;18.42;9.65;;;;;;;;;;5055161;28;20047;-71
2021/07/20 01:37:09;;;;;;;17.50;9.30;;;;;;;;;;5055797;28;20058;-71
2021/07/20 01:39:38;;;;;;;15.95;9.35;;;;;;;;;;5054882;28;20056;-71
2021/07/20 01:42:08;;;;;;;18.45;9.80;;;;;;;;;;5056196;28;20052;-71
2021/07/20 01:44:37;;;;;;;15.45;9.45;;;;;;;;;;5049400;28;20559;-71
2021/07/20 01:47:05;;;;;;;15.52;9.55;;;;;;;;;;5056046;28;20055;-71
2021/07/20 01:49:35;;;;;;;14.60;9.23;;;;;;;;;;5051747;28;20069;-72
2021/07/20 01:52:03;;;;;;;18.63;9.93;;;;;;;;;;5054461;28;20585;-71
2021/07/20 01:54:32;;;;;;;16.92;9.38;;;;;;;;;;5054839;28;20568;-71
2021/07/20 01:57:00;;;;;;;18.58;9.85;;;;;;;;;;5054875;28;20141;-74
2021/07/20 01:59:30;;;;;;;18.23;9.70;;;;;;;;;;5048654;28;20079;-71
2021/07/20 02:02:05;;;;;;;14.20;9.25;;;;;;;;;;5054292;28;20112;-71
2021/07/20 02:10:11;;;;;;;21.27;10.82;;;;;;;;;;5053435;28;20076;-71
2021/07/20 02:12:41;;;;;;;17.13;10.32;;;;;;;;;;5053991;28;20064;-70
2021/07/20 02:15:11;;;;;;;17.92;10.07;;;;;;;;;;5053077;28;20076;-74
2021/07/20 02:17:41;;;;;;;20.63;10.35;;;;;;;;;;5054190;28;20071;-71
2021/07/20 02:20:12;;;;;;;20.33;10.77;;;;;;;;;;5054519;28;20048;-72
2021/07/20 02:22:41;;;;;;;16.83;9.90;;;;;;;;;;5054694;28;20079;-71
2021/07/20 02:25:19;;;;;;;16.58;10.18;;;;;;;;;;5052123;28;20136;-71
2021/07/20 02:27:49;;;;;;;17.65;10.23;;;;;;;;;;5055993;28;20103;-71
2021/07/20 02:30:20;;;;;;;17.80;10.13;;;;;;;;;;5035222;28;20099;-71
2021/07/20 02:32:48;;;;;;;21.40;11.30;;;;;;;;;;5038345;28;20536;-74
2021/07/20 02:35:18;;;;;;;16.58;10.70;;;;;;;;;;5045813;28;20139;-71
2021/07/20 02:37:47;;;;;;;19.85;11.45;;;;;;;;;;5053097;28;20056;-73
2021/07/20 02:40:16;;;;;;;20.30;9.73;;;;;;;;;;5053978;28;20080;-71
2021/07/20 02:42:45;;;;;;;18.85;10.35;;;;;;;;;;5053241;28;20124;-71
2021/07/20 02:45:15;;;;;;;19.40;9.95;;;;;;;;;;5052425;28;20051;-71
2021/07/20 02:47:45;;;;;;;22.58;11.02;;;;;;;;;;5052173;28;20095;-71
2021/07/20 02:50:14;;;;;;;20.52;11.00;;;;;;;;;;5052482;28;20091;-71
2021/07/20 02:52:44;;;;;;;24.30;10.07;;;;;;;;;;5053357;28;20104;-72
2021/07/20 02:55:13;;;;;;;22.77;11.55;;;;;;;;;;5052865;28;20123;-71
2021/07/20 02:57:43;;;;;;;20.75;11.00;;;;;;;;;;5053181;28;20124;-71
2021/07/20 03:00:12;;;;;;;22.55;11.23;;;;;;;;;;5053399;28;20561;-74
2021/07/20 03:02:42;;;;;;;22.92;11.43;;;;;;;;;;5054634;28;20048;-72
2021/07/20 03:05:13;;;;;;;20.92;10.40;;;;;;;;;;5052906;28;20049;-72
2021/07/20 03:07:43;;;;;;;20.17;10.95;;;;;;;;;;5054020;28;20136;-72
2021/07/20 03:10:12;;;;;;;22.02;11.13;;;;;;;;;;5053627;28;20041;-71
2021/07/20 03:12:41;;;;;;;19.98;10.30;;;;;;;;;;5054568;28;20139;-72
2021/07/20 03:15:10;;;;;;;21.52;10.55;;;;;;;;;;5052854;28;20140;-71
2021/07/20 03:17:39;;;;;;;18.35;11.13;;;;;;;;;;5053190;28;20049;-71
2021/07/20 03:20:08;;;;;;;23.35;11.43;;;;;;;;;;5053999;28;20080;-71
2021/07/20 03:22:39;;;;;;;21.95;11.60;;;;;;;;;;5053277;28;20191;-72
2021/07/20 03:25:08;;;;;;;20.58;11.60;;;;;;;;;;5052802;28;20053;-72
2021/07/20 03:27:37;;;;;;;18.77;10.93;;;;;;;;;;5053813;28;20475;-71
2021/07/20 03:30:06;;;;;;;27.60;11.80;;;;;;;;;;5054847;28;20065;-71
2021/07/20 03:32:37;;;;;;;24.70;11.52;;;;;;;;;;5053963;28;20076;-72
2021/07/20 03:35:06;;;;;;;20.50;11.63;;;;;;;;;;5053390;28;20084;-72
2021/07/20 03:37:34;;;;;;;22.42;11.90;;;;;;;;;;5053480;28;20077;-72
2021/07/20 03:40:20;;;;;;;22.62;11.07;;;;;;;;;;2553933;28;10004002;-72
2021/07/20 03:42:49;;;;;;;20.27;11.60;;;;;;;;;;3658382;28;10001261;-72
2021/07/20 03:45:17;;;;;;;21.48;11.57;;;;;;;;;;5053696;28;20114;-71
2021/07/20 03:47:46;;;;;;;20.55;11.02;;;;;;;;;;5052254;28;20396;-72
2021/07/20 03:50:17;;;;;;;20.13;11.18;;;;;;;;;;5051822;28;20401;-72
2021/07/20 03:52:46;;;;;;;21.45;11.38;;;;;;;;;;5054341;28;20095;-72
2021/07/20 03:55:17;;;;;;;20.77;11.48;;;;;;;;;;5054017;28;20059;-72
2021/07/20 03:57:48;;;;;;;17.33;10.25;;;;;;;;;;5044238;28;20108;-73
2021/07/20 04:00:16;;;;;;;19.08;10.60;;;;;;;;;;5049380;28;20600;-71
2021/07/20 04:02:56;;;;;;;20.90;11.38;;;;;;;;;;5054269;28;20131;-71
2021/07/20 04:05:25;;;;;;;24.83;11.50;;;;;;;;;;5055444;28;20053;-71
2021/07/20 04:07:55;;;;;;;21.52;11.77;;;;;;;;;;5055178;28;20154;-70
2021/07/20 04:10:23;;;;;;;22.30;11.00;;;;;;;;;;5053576;28;20041;-71
2021/07/20 04:12:53;;;;;;;21.90;11.25;;;;;;;;;;5054376;28;20135;-72
2021/07/20 04:15:22;;;;;;;20.70;11.23;;;;;;;;;;5035732;28;20072;-70
2021/07/20 04:17:50;;;;;;;23.02;11.85;;;;;;;;;;5051196;28;21312;-71
2021/07/20 04:20:19;;;;;;;17.50;10.65;;;;;;;;;;5051240;28;20053;-71
2021/07/20 04:22:47;;;;;;;21.25;10.18;;;;;;;;;;5054453;28;20048;-72
2021/07/20 04:25:15;;;;;;;17.52;10.43;;;;;;;;;;5052283;28;20081;-72
2021/07/20 04:27:46;;;;;;;24.65;10.95;;;;;;;;;;5043582;28;20092;-74
2021/07/20 04:30:22;;;;;;;19.35;10.48;;;;;;;;;;5040777;28;20084;-71
2021/07/20 04:32:51;;;;;;;19.88;9.93;;;;;;;;;;5052009;28;20160;-71
2021/07/20 04:35:20;;;;;;;18.02;10.60;;;;;;;;;;5048609;28;20492;-71
2021/07/20 04:37:52;;;;;;;19.63;10.98;;;;;;;;;;5045734;28;20044;-71
2021/07/20 04:40:21;;;;;;;17.23;10.13;;;;;;;;;;5046359;28;20505;-71
2021/07/20 04:42:49;;;;;;;19.38;10.68;;;;;;;;;;5046246;28;20119;-72
2021/07/20 04:45:21;;;;;;;17.60;10.50;;;;;;;;;;5044489;28;20084;-74
2021/07/20 04:47:55;;;;;;;18.08;10.88;;;;;;;;;;5051466;28;20056;-72
2021/07/20 04:50:23;;;;;;;24.83;11.13;;;;;;;;;;5047747;28;20045;-72
2021/07/20 04:52:56;;;;;;;18.35;10.52;;;;;;;;;;5030265;28;20516;-73
2021/07/20 04:55:32;;;;;;;17.50;10.23;;;;;;;;;;5041331;28;20067;-72
2021/07/20 04:58:04;;;;;;;18.80;10.87;;;;;;;;;;5050219;28;20052;-70
2021/07/20 05:00:33;;;;;;;23.88;11.57;;;;;;;;;;5050075;28;20295;-71
2021/07/20 05:03:05;;;;;;;18.70;11.65;;;;;;;;;;5049460;28;20053;-72
2021/07/20 05:05:38;;;;;;;21.83;10.70;;;;;;;;;;5044648;28;20057;-74
2021/07/20 05:08:08;;;;;;;18.17;10.02;;;;;;;;;;5046978;28;20072;-71
2021/07/20 05:10:38;;;;;;;16.02;9.90;;;;;;;;;;5048429;28;20049;-71
2021/07/20 05:13:08;;;;;;;16.25;9.90;;;;;;;;;;5053475;28;20123;-71
2021/07/20 05:15:39;;;;;;;24.73;11.00;;;;;;;;;;5051172;28;20045;-71
2021/07/20 05:18:21;;;;;;;18.05;10.93;;;;;;;;;;5051155;28;20380;-73
2021/07/20 05:20:57;;;;;;;15.13;9.43;;;;;;;;;;5050518;28;20083;-71
2021/07/20 05:23:31;;;;;;;18.55;10.77;;;;;;;;;;5053836;28;20582;-73
2021/07/20 05:26:01;;;;;;;21.60;11.05;;;;;;;;;;5047099;28;20459;-72
2021/07/20 05:28:32;;;;;;;18.00;10.77;;;;;;;;;;5053804;28;20060;-73
2021/07/20 05:31:03;;;;;;;17.92;10.48;;;;;;;;;;5055151;28;20688;-76
2021/07/20 05:33:34;;;;;;;23.10;11.43;;;;;;;;;;5054644;28;20454;-74
2021/07/20 05:36:04;;;;;;;21.85;10.77;;;;;;;;;;5053951;28;20059;-70
2021/07/20 05:38:38;;;;;;;20.70;11.05;;;;;;;;;;5052352;28;20095;-71
2021/07/20 05:41:13;;;;;;;23.35;11.13;;;;;;;;;;5043715;28;20049;-70
2021/07/20 05:43:42;;;;;;;19.92;9.77;;;;;;;;;;5053207;28;20052;-72
2021/07/20 05:46:13;;;;;;;18.65;10.60;;;;;;;;;;5028632;28;20063;-71
2021/07/20 05:48:47;;;;;;;16.67;9.55;;;;;;;;;;5055190;28;20120;-74
2021/07/20 05:51:21;;;;;;;16.92;10.23;;;;;;;;;;5051030;28;20225;-71
2021/07/20 05:53:58;;;;;;;18.65;11.02;;;;;;;;;;5053047;28;20382;-71
2021/07/20 05:56:43;;;;;;;16.55;10.50;;;;;;;;;;5030613;28;20044;-71
2021/07/20 05:59:13;;;;;;;19.27;10.77;;;;;;;;;;5052920;28;20060;-73
2021/07/20 06:01:45;;;;;;;18.70;10.02;;;;;;;;;;5052690;28;20412;-73
2021/07/20 06:04:32;;;;;;;18.45;10.73;;;;;;;;;;5038930;28;20537;-73
2021/07/20 06:07:05;;;;;;;19.77;9.77;;;;;;;;;;5023943;28;20057;-73
2021/07/20 06:09:33;;;;;;;19.98;9.93;;;;;;;;;;5020179;28;20193;-72
2021/07/20 06:12:04;;;;;;;14.95;9.25;;;;;;;;;;5018603;28;20433;-70
2021/07/20 06:14:33;;;;;;;20.05;11.23;;;;;;;;;;5018271;28;20286;-69
2021/07/20 06:17:01;;;;;;;17.35;9.98;;;;;;;;;;5022079;28;20046;-71
2021/07/20 06:19:32;;;;;;;18.17;10.45;;;;;;;;;;5021361;28;20508;-70
2021/07/20 06:22:03;;;;;;;20.02;10.50;;;;;;;;;;5020583;28;20057;-72
2021/07/20 06:24:33;;;;;;;20.20;11.27;;;;;;;;;;5026567;28;20045;-71
2021/07/20 06:27:01;;;;;;;22.35;10.50;;;;;;;;;;5022647;28;20521;-71
2021/07/20 06:29:31;;;;;;;24.90;10.93;;;;;;;;;;5022023;28;20129;-71
2021/07/20 06:32:00;;;;;;;21.83;10.93;;;;;;;;;;5020874;28;20564;-71
2021/07/20 06:34:29;;;;;;;21.23;11.07;;;;;;;;;;5020188;28;20156;-71
2021/07/20 06:36:59;;;;;;;18.00;10.77;;;;;;;;;;5031934;28;20136;-71
2021/07/20 06:39:28;;;;;;;19.17;10.95;;;;;;;;;;5050931;28;20052;-71
2021/07/20 06:41:58;;;;;;;19.27;11.07;;;;;;;;;;5047905;28;20499;-71
2021/07/20 06:44:27;;;;;;;27.13;12.23;;;;;;;;;;5042441;28;20132;-71
2021/07/20 06:46:55;;;;;;;24.05;11.57;;;;;;;;;;5046201;28;20057;-72
2021/07/20 06:49:24;;;;;;;18.20;10.57;;;;;;;;;;5046502;28;20041;-72
2021/07/20 06:51:52;;;;;;;21.52;12.02;;;;;;;;;;5050677;28;20079;-72
2021/07/20 06:54:22;;;;;;;21.83;10.48;;;;;;;;;;5049764;28;20053;-71
2021/07/20 06:56:53;;;;;;;19.23;10.65;;;;;;;;;;5049650;28;20041;-71
2021/07/20 06:59:25;;;;;;;22.20;11.18;;;;;;;;;;5048860;28;20071;-71
2021/07/20 07:01:55;;;;;;;23.13;10.52;;;;;;;;;;5044604;28;20057;-72
2021/07/20 07:04:27;;;;;;;20.35;10.35;;;;;;;;;;5049398;28;20535;-73
2021/07/20 07:06:57;;;;;;;18.77;10.60;;;;;;;;;;5042999;28;20136;-70
2021/07/20 07:09:28;;;;;;;20.05;11.73;;;;;;;;;;5047885;28;20044;-70
2021/07/20 07:11:56;;;;;;;17.20;10.55;;;;;;;;;;5051670;28;20053;-70
2021/07/20 07:14:25;;;;;;;17.20;11.07;;;;;;;;;;5050568;28;20045;-71
2021/07/20 07:16:55;;;;;;;18.67;10.77;;;;;;;;;;5051625;28;20504;-71
2021/07/20 07:19:24;;;;;;;21.35;10.60;;;;;;;;;;5052432;28;20045;-72
2021/07/20 07:21:53;;;;;;;18.85;11.90;;;;;;;;;;5051914;28;20059;-71
2021/07/20 07:24:22;;;;;;;17.25;10.68;;;;;;;;;;5050435;28;20049;-72
2021/07/20 07:26:53;;;;;;;16.42;10.50;;;;;;;;;;5050892;28;20128;-72
2021/07/20 07:29:26;;;;;;;20.98;10.55;;;;;;;;;;5046227;28;20048;-72
2021/07/20 07:31:55;;;;;;;25.65;10.80;;;;;;;;;;5051187;28;20497;-70
2021/07/20 07:34:24;;;;;;;22.10;10.65;;;;;;;;;;5050815;28;20897;-71
2021/07/20 07:36:54;;;;;;;17.73;10.90;;;;;;;;;;5051717;28;20099;-71
2021/07/20 07:39:24;;;;;;;21.70;10.85;;;;;;;;;;5050235;28;20056;-71
2021/07/20 07:41:54;;;;;;;17.08;9.90;;;;;;;;;;5051792;28;20049;-71
2021/07/20 07:44:24;;;;;;;30.20;10.38;;;;;;;;;;5047979;28;20049;-71
2021/07/20 07:46:53;;;;;;;21.67;10.32;;;;;;;;;;5051764;28;20053;-71
2021/07/20 07:49:22;;;;;;;15.95;9.52;;;;;;;;;;5050721;28;20049;-71
2021/07/20 07:51:51;;;;;;;21.52;10.50;;;;;;;;;;5051371;28;20045;-71
2021/07/20 07:54:20;;;;;;;19.83;9.60;;;;;;;;;;5050835;28;20438;-71
2021/07/20 07:56:49;;;;;;;15.52;9.30;;;;;;;;;;5044633;28;20501;-71
2021/07/20 07:59:23;;;;;;;17.90;10.82;;;;;;;;;;5040472;28;20045;-71
2021/07/20 08:01:52;;;;;;;15.35;9.02;;;;;;;;;;5046766;28;20075;-71
2021/07/20 08:04:22;;;;;;;19.70;10.05;;;;;;;;;;5043738;28;20067;-72
2021/07/20 08:06:51;;;;;;;15.48;9.02;;;;;;;;;;5050915;28;20037;-72
2021/07/20 08:09:21;;;;;;;15.02;9.02;;;;;;;;;;5051359;28;20056;-72
2021/07/20 08:11:51;;;;;;;16.40;9.98;;;;;;;;;;5049004;28;20053;-71
2021/07/20 08:14:23;;;;;;;17.10;8.82;;;;;;;;;;5045980;28;20480;-72
2021/07/20 08:16:56;;;;;;;16.88;9.32;;;;;;;;;;5047255;28;20041;-72
2021/07/20 08:19:27;;;;;;;17.55;9.27;;;;;;;;;;5049374;28;20049;-72
2021/07/20 08:21:58;;;;;;;17.13;9.20;;;;;;;;;;5051754;28;20048;-71
2021/07/20 08:24:29;;;;;;;17.70;8.88;;;;;;;;;;5047091;28;20053;-72
2021/07/20 08:27:01;;;;;;;19.35;9.48;;;;;;;;;;5049156;28;20068;-72
2021/07/20 08:29:33;;;;;;;14.77;9.13;;;;;;;;;;5047805;28;20044;-71
2021/07/20 08:32:05;;;;;;;14.93;8.73;;;;;;;;;;5049533;28;20453;-72
2021/07/20 08:34:35;;;;;;;13.40;8.85;;;;;;;;;;5048627;28;20144;-71
2021/07/20 08:37:25;;;;;;;14.02;8.35;;;;;;;;;;5034142;28;20049;-72
2021/07/20 08:39:55;;;;;;;17.20;9.20;;;;;;;;;;5044838;28;20041;-73
2021/07/20 08:42:27;;;;;;;18.50;10.18;;;;;;;;;;5049800;28;20045;-73
2021/07/20 08:45:14;;;;;;;19.80;8.50;;;;;;;;;;5039402;28;20088;-72
2021/07/20 08:47:57;;;;;;;19.48;9.52;;;;;;;;;;5049401;28;20056;-74
2021/07/20 08:50:28;;;;;;;16.40;9.38;;;;;;;;;;5045706;28;20682;-72
2021/07/20 08:53:05;;;;;;;15.93;8.43;;;;;;;;;;5050467;28;20049;-72
2021/07/20 08:55:36;;;;;;;16.90;8.77;;;;;;;;;;5040361;28;20160;-71
2021/07/20 08:58:05;;;;;;;16.25;8.82;;;;;;;;;;5033658;28;20055;-70
2021/07/20 09:00:37;;;;;;;15.20;8.88;;;;;;;;;;5048882;28;20151;-70
2021/07/20 09:03:13;;;;;;;15.05;8.13;;;;;;;;;;5037690;28;20348;-70
2021/07/20 09:05:46;;;;;;;13.65;8.68;;;;;;;;;;5049777;28;20045;-72
2021/07/20 09:08:17;;;;;;;16.42;9.63;;;;;;;;;;5048819;28;20053;-70
2021/07/20 09:10:47;;;;;;;15.60;9.23;;;;;;;;;;5049369;28;20103;-70
2021/07/20 09:13:19;;;;;;;17.85;9.60;;;;;;;;;;5043848;28;20103;-70
2021/07/20 09:15:52;;;;;;;16.48;8.77;;;;;;;;;;5047008;28;20051;-70
2021/07/20 09:18:25;;;;;;;16.83;9.35;;;;;;;;;;5049436;28;20049;-73
2021/07/20 09:20:56;;;;;;;15.73;9.93;;;;;;;;;;5044851;28;20084;-72
2021/07/20 09:23:28;;;;;;;14.15;8.57;;;;;;;;;;5045366;28;20136;-71
2021/07/20 09:25:59;;;;;;;17.02;9.27;;;;;;;;;;5049200;28;20147;-73
2021/07/20 09:28:31;;;;;;;12.73;8.82;;;;;;;;;;5046867;28;20045;-73
2021/07/20 09:31:00;;;;;;;17.70;9.43;;;;;;;;;;5042280;28;20497;-72
2021/07/20 09:33:36;;;;;;;13.52;9.10;;;;;;;;;;5050154;28;20076;-72
2021/07/20 09:36:04;;;;;;;;;;;;;;;;;;5047833;28;20130;-72
2021/07/20 09:38:42;;;;;;;17.65;9.98;;;;;;;;;;5046408;28;20124;-72
2021/07/20 09:41:17;;;;;;;19.00;10.23;;;;;;;;;;5050499;28;20085;-73
2021/07/20 09:43:50;;;;;;;14.90;9.18;;;;;;;;;;5048570;28;20076;-71
2021/07/20 09:46:28;;;;;;;13.93;8.90;;;;;;;;;;5047908;28;20154;-72
2021/07/20 09:49:00;;;;;;;17.67;8.73;;;;;;;;;;5046979;28;20053;-71
2021/07/20 09:51:48;;;;;;;17.50;8.40;;;;;;;;;;5048802;28;20048;-72
2021/07/20 09:54:21;;;;;;;14.05;8.80;;;;;;;;;;5046930;28;20064;-71
2021/07/20 09:56:56;;;;;;;13.35;8.52;;;;;;;;;;5048494;28;20141;-71
2021/07/20 09:59:40;;;;;;;18.25;9.50;;;;;;;;;;5048152;28;20041;-71
2021/07/20 10:02:12;;;;;;;13.52;8.88;;;;;;;;;;5049494;28;20131;-71
2021/07/20 10:04:47;;;;;;;14.35;8.98;;;;;;;;;;5046516;28;20100;-75
2021/07/20 10:07:22;;;;;;;20.38;10.68;;;;;;;;;;5048984;28;20098;-72
2021/07/20 10:09:53;;;;;;;14.50;9.98;;;;;;;;;;5046015;28;20055;-72
2021/07/20 10:12:25;;;;;;;15.55;9.95;;;;;;;;;;5047371;28;20504;-72
2021/07/20 10:14:58;;;;;;;15.68;9.90;;;;;;;;;;5049277;28;20049;-74
2021/07/20 10:17:30;;;;;;;15.77;9.55;;;;;;;;;;5046095;28;20557;-73
2021/07/20 10:20:03;;;;;;;16.60;9.85;;;;;;;;;;5047994;28;20056;-71
2021/07/20 10:22:36;;;;;;;15.02;9.65;;;;;;;;;;5045395;28;20052;-72
2021/07/20 10:25:06;;;;;;;15.35;9.93;;;;;;;;;;5048426;28;20096;-74
2021/07/20 10:27:38;;;;;;;18.58;10.38;;;;;;;;;;5048496;28;20052;-72
2021/07/20 10:30:08;;;;;;;19.38;11.27;;;;;;;;;;5049498;28;20057;-71
2021/07/20 10:32:43;;;;;;;15.75;10.57;;;;;;;;;;5048815;28;20057;-71
2021/07/20 10:35:19;;;;;;;14.25;9.65;;;;;;;;;;5040554;28;20104;-73
2021/07/20 10:37:49;;;;;;;14.48;9.55;;;;;;;;;;5047576;28;20060;-72
2021/07/20 10:40:18;;;;;;;16.40;11.10;;;;;;;;;;5047634;28;20092;-71
2021/07/20 10:42:48;;;;;;;23.30;11.07;;;;;;;;;;5048080;28;20116;-71
2021/07/20 10:45:18;;;;;;;16.35;10.55;;;;;;;;;;5041538;28;20178;-70
2021/07/20 10:47:49;;;;;;;22.73;11.95;;;;;;;;;;5049653;28;20084;-72
2021/07/20 10:50:24;;;;;;;17.35;11.07;;;;;;;;;;5043510;28;20442;-73
2021/07/20 10:52:56;;;;;;;16.95;11.02;;;;;;;;;;5042183;28;20497;-70
2021/07/20 10:55:27;;;;;;;14.82;9.90;;;;;;;;;;5047550;28;20482;-72
2021/07/20 10:57:58;;;;;;;15.15;10.57;;;;;;;;;;5048664;28;20488;-72
2021/07/20 11:00:29;;;;;;;16.08;10.70;;;;;;;;;;5047815;28;20053;-72
2021/07/20 11:03:01;;;;;;;16.25;10.82;;;;;;;;;;5047176;28;20045;-71
2021/07/20 11:05:31;;;;;;;14.85;11.02;;;;;;;;;;5046774;28;20040;-71
2021/07/20 11:08:02;;;;;;;15.95;10.77;;;;;;;;;;5048202;28;20049;-71
2021/07/20 11:10:33;;;;;;;15.02;10.13;;;;;;;;;;5041713;28;20057;-72
2021/07/20 11:13:03;;;;;;;15.07;10.43;;;;;;;;;;5045449;28;20048;-72
2021/07/20 11:15:32;;;;;;;13.82;10.30;;;;;;;;;;5045115;28;20369;-73
2021/07/20 11:18:02;;;;;;;17.27;11.13;;;;;;;;;;5046478;28;20049;-72
2021/07/20 11:20:34;;;;;;;21.13;11.63;;;;;;;;;;5047364;28;20095;-71
2021/07/20 11:23:04;;;;;;;16.90;10.05;;;;;;;;;;5045892;28;20057;-71
2021/07/20 11:25:33;;;;;;;17.98;11.85;;;;;;;;;;5047220;28;20057;-71
2021/07/20 11:28:02;;;;;;;16.33;11.57;;;;;;;;;;5042986;28;20053;-73
2021/07/20 11:30:33;;;;;;;18.08;12.27;;;;;;;;;;5045661;28;20570;-71
2021/07/20 11:33:03;;;;;;;22.85;12.02;;;;;;;;;;5043445;28;20065;-72
2021/07/20 11:35:37;;;;;;;19.98;12.32;;;;;;;;;;5044234;28;20076;-74
2021/07/20 11:38:06;;;;;;;19.43;12.30;;;;;;;;;;5034892;28;20492;-72
2021/07/20 11:40:37;;;;;;;17.38;11.70;;;;;;;;;;5048108;28;20331;-73
2021/07/20 11:43:08;;;;;;;18.75;11.23;;;;;;;;;;5038813;28;20414;-71
2021/07/20 11:45:42;;;;;;;20.70;12.10;;;;;;;;;;5037739;28;20053;-71
2021/07/20 11:48:13;;;;;;;18.52;11.88;;;;;;;;;;5046131;28;20044;-71
2021/07/20 11:50:43;;;;;;;18.30;12.32;;;;;;;;;;5046983;28;20146;-72
2021/07/20 11:53:15;;;;;;;19.45;12.77;;;;;;;;;;5043480;28;20134;-72
2021/07/20 11:55:47;;;;;;;16.88;11.40;;;;;;;;;;5044920;28;20129;-75
2021/07/20 11:58:46;;;;;;;20.73;12.63;;;;;;;;;;5043758;28;20049;-73
2021/07/20 12:01:29;;;;;;;19.05;11.68;;;;;;;;;;5036160;28;20256;-72
2021/07/20 12:04:03;;;;;;;20.85;12.45;;;;;;;;;;5044915;28;20057;-73
2021/07/20 12:06:53;;;;;;;19.92;12.65;;;;;;;;;;5045150;28;20072;-72
2021/07/20 12:09:31;;;;;;;18.20;12.38;;;;;;;;;;5045072;28;20136;-72
2021/07/20 12:12:14;;;;;;;17.52;11.40;;;;;;;;;;5045882;28;20530;-72
2021/07/20 12:14:44;;;;;;;21.33;12.95;;;;;;;;;;5042522;28;20210;-72
2021/07/20 12:17:15;;;;;;;19.63;11.57;;;;;;;;;;5046203;28;20090;-74
2021/07/20 12:19:44;;;;;;;22.92;12.70;;;;;;;;;;5045773;28;20407;-74
2021/07/20 12:22:14;;;;;;;23.90;12.68;;;;;;;;;;5044033;28;20076;-71
2021/07/20 12:24:43;;;;;;;17.80;12.32;;;;;;;;;;5039103;28;20417;-72
2021/07/20 12:27:12;;;;;;;19.10;12.98;;;;;;;;;;5044799;28;20544;-72
2021/07/20 12:29:41;;;;;;;22.60;14.18;;;;;;;;;;5045297;28;20394;-75
2021/07/20 12:32:15;;;;;;;22.65;13.52;;;;;;;;;;5043536;28;20049;-72
2021/07/20 12:34:49;;;;;;;21.27;13.75;;;;;;;;;;5043857;28;20481;-72
2021/07/20 12:37:19;;;;;;;23.95;13.80;;;;;;;;;;5046173;28;20146;-72
2021/07/20 12:39:48;;;;;;;22.92;13.95;;;;;;;;;;5045385;28;20045;-72
2021/07/20 12:42:18;;;;;;;19.02;12.30;;;;;;;;;;5046230;28;20098;-71
2021/07/20 12:45:01;;;;;;;20.90;13.88;;;;;;;;;;5044018;28;20053;-72
2021/07/20 12:47:29;;;;;;;19.15;13.35;;;;;;;;;;5044118;28;20044;-72
2021/07/20 12:50:04;;;;;;;21.27;13.73;;;;;;;;;;5034840;28;20358;-72
2021/07/20 12:52:36;;;;;;;22.15;14.10;;;;;;;;;;5042700;28;20087;-72
2021/07/20 12:55:09;;;;;;;24.17;14.38;;;;;;;;;;5047176;28;20045;-71
2021/07/20 12:57:37;;;;;;;25.88;14.63;;;;;;;;;;5043463;28;20056;-72
2021/07/20 13:00:27;;;;;;;18.75;12.88;;;;;;;;;;5035754;28;20049;-71
2021/07/20 13:02:57;;;;;;;21.52;13.75;;;;;;;;;;5036328;28;20045;-72
2021/07/20 13:05:27;;;;;;;23.02;13.90;;;;;;;;;;5040835;28;20044;-71
2021/07/20 13:07:59;;;;;;;21.00;14.13;;;;;;;;;;5049485;28;20076;-72
2021/07/20 13:10:29;;;;;;;19.23;13.05;;;;;;;;;;5049543;28;20061;-71
2021/07/20 13:12:59;;;;;;;21.60;13.95;;;;;;;;;;5049053;28;20041;-72
2021/07/20 13:15:28;;;;;;;20.30;13.40;;;;;;;;;;5047973;28;20159;-71
2021/07/20 13:17:57;;;;;;;25.20;14.57;;;;;;;;;;5043161;28;20304;-72
2021/07/20 13:20:27;;;;;;;24.77;14.27;;;;;;;;;;5042003;28;20094;-72
2021/07/20 13:22:56;;;;;;;22.00;13.13;;;;;;;;;;5041536;28;20057;-72
2021/07/20 13:25:26;;;;;;;22.73;14.38;;;;;;;;;;5046097;28;20591;-72
2021/07/20 13:27:56;;;;;;;21.90;13.73;;;;;;;;;;5048697;28;20045;-72
2021/07/20 13:30:25;;;;;;;20.92;13.10;;;;;;;;;;5043089;28;20103;-73
2021/07/20 13:32:54;;;;;;;21.45;13.40;;;;;;;;;;5050085;28;20045;-73
2021/07/20 13:35:23;;;;;;;21.35;13.90;;;;;;;;;;5050881;28;20053;-72
2021/07/20 13:37:54;;;;;;;19.55;13.25;;;;;;;;;;5052479;28;20519;-72
2021/07/20 13:40:23;;;;;;;20.27;12.73;;;;;;;;;;5047750;28;20102;-72
2021/07/20 13:42:53;;;;;;;23.10;12.95;;;;;;;;;;5044522;28;20045;-72
2021/07/20 13:45:22;;;;;;;22.02;13.88;;;;;;;;;;5049323;28;20049;-71
2021/07/20 13:47:52;;;;;;;20.98;13.07;;;;;;;;;;5052163;28;20049;-72
2021/07/20 13:50:24;;;;;;;20.33;13.20;;;;;;;;;;5051972;28;20098;-72
2021/07/20 13:52:54;;;;;;;19.65;13.77;;;;;;;;;;5047331;28;20044;-73
2021/07/20 13:55:25;;;;;;;24.60;14.13;;;;;;;;;;5048682;28;20064;-72
2021/07/20 13:57:55;;;;;;;18.98;13.73;;;;;;;;;;5044788;28;20080;-72
2021/07/20 14:00:24;;;;;;;20.98;14.23;;;;;;;;;;5050347;28;20053;-72
2021/07/20 14:02:55;;;;;;;20.83;13.85;;;;;;;;;;5037304;28;20099;-72
2021/07/20 14:05:24;;;;;;;21.25;13.38;;;;;;;;;;5050165;28;20041;-72
2021/07/20 14:07:53;;;;;;;20.63;14.30;;;;;;;;;;5051991;28;20437;-71
2021/07/20 14:10:21;;;;;;;22.45;14.48;;;;;;;;;;5048905;28;20057;-71
2021/07/20 14:12:50;;;;;;;19.48;13.05;;;;;;;;;;5049637;28;20183;-71
2021/07/20 14:15:25;;;;;;;32.60;14.23;;;;;;;;;;5050724;28;20053;-71
2021/07/20 14:17:54;;;;;;;22.33;14.52;;;;;;;;;;5035540;28;20072;-71
2021/07/20 14:20:22;;;;;;;23.52;14.13;;;;;;;;;;5049702;28;20087;-72
2021/07/20 14:22:51;;;;;;;20.98;14.38;;;;;;;;;;5050135;28;20505;-71
2021/07/20 14:25:21;;;;;;;19.70;14.32;;;;;;;;;;5035107;28;20071;-74
2021/07/20 14:27:49;;;;;;;24.10;13.95;;;;;;;;;;5033881;28;20103;-72
2021/07/20 14:30:19;;;;;;;22.52;14.38;;;;;;;;;;5050666;28;20147;-73
2021/07/20 14:32:48;;;;;;;21.48;13.98;;;;;;;;;;5046207;28;20087;-71
2021/07/20 14:35:16;;;;;;;21.48;13.85;;;;;;;;;;5048414;28;20079;-71
2021/07/20 14:37:49;;;;;;;21.17;14.13;;;;;;;;;;5051637;28;20423;-72
2021/07/20 14:40:22;;;;;;;21.80;14.23;;;;;;;;;;5044079;28;20076;-72
2021/07/20 14:42:52;;;;;;;21.73;14.57;;;;;;;;;;5032775;28;20056;-72
2021/07/20 14:45:24;;;;;;;22.13;14.82;;;;;;;;;;5046769;28;20053;-71
2021/07/20 14:48:08;;;;;;;21.42;13.68;;;;;;;;;;5045783;28;20072;-71